sensor_id;sensor_type;location;lat;lon;timestamp;temperature;humidity
9383;DHT22;4731;49.708;10.816;2023-05-10T00:00:52;14.80;99.90
9383;DHT22;4731;49.708;10.816;2023-05-10T00:03:19;16.60;99.90
9383;DHT22;4731;49.708;10.816;2023-05-10T00:05:47;15.50;99.90
9383;DHT22;4731;49.708;10.816;2023-05-10T00:08:14;14.80;99.90
9383;DHT22;4731;49.708;10.816;2023-05-10T00:10:40;16.60;99.90
9383;DHT22;4731;49.708;10.816;2023-05-10T00:13:07;14.80;99.90
9383;DHT22;4731;49.708;10.816;2023-05-10T00:15:34;15.60;99.90
9383;DHT22;4731;49.708;10.816;2023-05-10T00:18:01;15.00;99.90
9383;DHT22;4731;49.708;10.816;2023-05-10T00:20:27;15.00;99.90
9383;DHT22;4731;49.708;10.816;2023-05-10T00:22:55;15.00;99.90
9383;DHT22;4731;49.708;10.816;2023-05-10T00:25:22;14.90;99.90
9383;DHT22;4731;49.708;10.816;2023-05-10T00:27:49;14.80;99.90
9383;DHT22;4731;49.708;10.816;2023-05-10T00:30:16;15.80;99.90
9383;DHT22;4731;49.708;10.816;2023-05-10T00:32:42;15.70;99.90
9383;DHT22;4731;49.708;10.816;2023-05-10T00:35:09;17.10;99.90
9383;DHT22;4731;49.708;10.816;2023-05-10T00:37:36;15.00;99.90
9383;DHT22;4731;49.708;10.816;2023-05-10T00:40:05;15.00;99.90
9383;DHT22;4731;49.708;10.816;2023-05-10T00:42:32;14.90;99.90
9383;DHT22;4731;49.708;10.816;2023-05-10T00:44:59;14.90;99.90
9383;DHT22;4731;49.708;10.816;2023-05-10T00:47:27;14.90;99.90
9383;DHT22;4731;49.708;10.816;2023-05-10T00:49:54;16.90;99.90
9383;DHT22;4731;49.708;10.816;2023-05-10T00:52:21;15.10;99.90
9383;DHT22;4731;49.708;10.816;2023-05-10T00:54:49;14.80;99.90
9383;DHT22;4731;49.708;10.816;2023-05-10T00:57:18;14.90;99.90
9383;DHT22;4731;49.708;10.816;2023-05-10T00:59:45;14.80;99.90
9383;DHT22;4731;49.708;10.816;2023-05-10T01:02:12;14.80;99.90
9383;DHT22;4731;49.708;10.816;2023-05-10T01:04:39;14.80;99.90
9383;DHT22;4731;49.708;10.816;2023-05-10T01:07:06;15.20;99.90
9383;DHT22;4731;49.708;10.816;2023-05-10T01:09:33;14.70;99.90
9383;DHT22;4731;49.708;10.816;2023-05-10T01:12:02;15.20;99.90
9383;DHT22;4731;49.708;10.816;2023-05-10T01:14:30;14.60;99.90
9383;DHT22;4731;49.708;10.816;2023-05-10T01:16:57;14.70;99.90
9383;DHT22;4731;49.708;10.816;2023-05-10T01:19:26;14.60;99.90
9383;DHT22;4731;49.708;10.816;2023-05-10T01:22:00;14.60;99.90
9383;DHT22;4731;49.708;10.816;2023-05-10T01:25:19;14.00;99.90
9383;DHT22;4731;49.708;10.816;2023-05-10T01:28:15;14.60;99.90
9383;DHT22;4731;49.708;10.816;2023-05-10T01:31:05;14.60;99.90
9383;DHT22;4731;49.708;10.816;2023-05-10T01:33:37;14.60;99.90
9383;DHT22;4731;49.708;10.816;2023-05-10T01:36:08;14.60;99.90
9383;DHT22;4731;49.708;10.816;2023-05-10T01:38:41;14.50;99.90
9383;DHT22;4731;49.708;10.816;2023-05-10T01:41:14;14.60;99.90
9383;DHT22;4731;49.708;10.816;2023-05-10T01:43:48;14.60;99.90
9383;DHT22;4731;49.708;10.816;2023-05-10T01:46:26;14.60;99.90
9383;DHT22;4731;49.708;10.816;2023-05-10T01:48:57;14.50;99.90
9383;DHT22;4731;49.708;10.816;2023-05-10T01:51:27;14.50;99.90
9383;DHT22;4731;49.708;10.816;2023-05-10T01:54:00;14.60;99.90
9383;DHT22;4731;49.708;10.816;2023-05-10T01:56:30;14.50;99.90
9383;DHT22;4731;49.708;10.816;2023-05-10T01:58:58;14.50;99.90
9383;DHT22;4731;49.708;10.816;2023-05-10T02:01:27;14.50;99.90
9383;DHT22;4731;49.708;10.816;2023-05-10T02:03:56;14.50;99.90
9383;DHT22;4731;49.708;10.816;2023-05-10T02:06:24;14.50;99.90
9383;DHT22;4731;49.708;10.816;2023-05-10T02:08:52;14.50;99.90
9383;DHT22;4731;49.708;10.816;2023-05-10T02:11:19;14.60;99.90
9383;DHT22;4731;49.708;10.816;2023-05-10T02:13:48;14.50;99.90
9383;DHT22;4731;49.708;10.816;2023-05-10T02:16:17;15.70;99.90
9383;DHT22;4731;49.708;10.816;2023-05-10T02:18:45;14.50;99.90
9383;DHT22;4731;49.708;10.816;2023-05-10T02:21:15;14.60;99.90
9383;DHT22;4731;49.708;10.816;2023-05-10T02:23:43;14.60;99.90
9383;DHT22;4731;49.708;10.816;2023-05-10T02:26:11;14.50;99.90
9383;DHT22;4731;49.708;10.816;2023-05-10T02:28:40;14.50;99.90
9383;DHT22;4731;49.708;10.816;2023-05-10T02:31:10;14.30;99.90
9383;DHT22;4731;49.708;10.816;2023-05-10T02:33:38;14.20;99.90
9383;DHT22;4731;49.708;10.816;2023-05-10T02:36:07;15.70;99.90
9383;DHT22;4731;49.708;10.816;2023-05-10T02:38:37;14.00;99.90
9383;DHT22;4731;49.708;10.816;2023-05-10T02:41:05;14.00;99.90
9383;DHT22;4731;49.708;10.816;2023-05-10T02:43:35;14.00;99.90
9383;DHT22;4731;49.708;10.816;2023-05-10T02:46:02;14.00;99.90
9383;DHT22;4731;49.708;10.816;2023-05-10T02:48:29;13.80;99.90
9383;DHT22;4731;49.708;10.816;2023-05-10T02:51:04;13.80;99.90
9383;DHT22;4731;49.708;10.816;2023-05-10T02:53:35;13.80;99.90
9383;DHT22;4731;49.708;10.816;2023-05-10T02:56:09;13.80;99.90
9383;DHT22;4731;49.708;10.816;2023-05-10T02:58:38;13.70;99.90
9383;DHT22;4731;49.708;10.816;2023-05-10T03:01:05;13.70;99.90
9383;DHT22;4731;49.708;10.816;2023-05-10T03:03:33;13.70;99.90
9383;DHT22;4731;49.708;10.816;2023-05-10T03:06:00;13.70;99.90
9383;DHT22;4731;49.708;10.816;2023-05-10T03:08:27;13.60;99.90
9383;DHT22;4731;49.708;10.816;2023-05-10T03:11:12;13.50;99.90
9383;DHT22;4731;49.708;10.816;2023-05-10T03:13:48;13.60;99.90
9383;DHT22;4731;49.708;10.816;2023-05-10T03:16:24;13.60;99.90
9383;DHT22;4731;49.708;10.816;2023-05-10T03:19:01;13.50;99.90
9383;DHT22;4731;49.708;10.816;2023-05-10T03:21:29;13.50;99.90
9383;DHT22;4731;49.708;10.816;2023-05-10T03:23:59;13.40;99.90
9383;DHT22;4731;49.708;10.816;2023-05-10T03:26:33;13.40;99.90
9383;DHT22;4731;49.708;10.816;2023-05-10T03:29:01;13.30;99.90
9383;DHT22;4731;49.708;10.816;2023-05-10T03:31:28;13.30;99.90
9383;DHT22;4731;49.708;10.816;2023-05-10T03:33:55;13.40;99.90
9383;DHT22;4731;49.708;10.816;2023-05-10T03:36:21;13.30;99.90
9383;DHT22;4731;49.708;10.816;2023-05-10T03:38:49;13.40;99.90
9383;DHT22;4731;49.708;10.816;2023-05-10T03:41:15;13.30;99.90
9383;DHT22;4731;49.708;10.816;2023-05-10T03:43:43;13.30;99.90
9383;DHT22;4731;49.708;10.816;2023-05-10T03:46:10;13.30;99.90
9383;DHT22;4731;49.708;10.816;2023-05-10T03:48:37;13.30;99.90
9383;DHT22;4731;49.708;10.816;2023-05-10T03:51:03;14.60;99.90
9383;DHT22;4731;49.708;10.816;2023-05-10T03:53:30;13.30;99.90
9383;DHT22;4731;49.708;10.816;2023-05-10T03:55:57;13.20;99.90
9383;DHT22;4731;49.708;10.816;2023-05-10T03:58:23;13.20;99.90
9383;DHT22;4731;49.708;10.816;2023-05-10T04:00:52;13.20;99.90
9383;DHT22;4731;49.708;10.816;2023-05-10T04:03:19;13.10;99.90
9383;DHT22;4731;49.708;10.816;2023-05-10T04:05:45;13.10;99.90
9383;DHT22;4731;49.708;10.816;2023-05-10T04:08:12;13.10;99.90
9383;DHT22;4731;49.708;10.816;2023-05-10T04:10:40;13.10;99.90
9383;DHT22;4731;49.708;10.816;2023-05-10T04:13:06;13.00;99.90
9383;DHT22;4731;49.708;10.816;2023-05-10T04:15:33;13.00;99.90
9383;DHT22;4731;49.708;10.816;2023-05-10T04:18:02;12.90;99.90
9383;DHT22;4731;49.708;10.816;2023-05-10T04:20:29;12.90;99.90
9383;DHT22;4731;49.708;10.816;2023-05-10T04:22:55;13.00;99.90
9383;DHT22;4731;49.708;10.816;2023-05-10T04:25:22;13.00;99.90
9383;DHT22;4731;49.708;10.816;2023-05-10T04:27:49;13.00;99.90
9383;DHT22;4731;49.708;10.816;2023-05-10T04:30:16;13.00;99.90
9383;DHT22;4731;49.708;10.816;2023-05-10T04:32:42;13.00;99.90
9383;DHT22;4731;49.708;10.816;2023-05-10T04:35:10;13.00;99.90
9383;DHT22;4731;49.708;10.816;2023-05-10T04:37:37;12.90;99.90
9383;DHT22;4731;49.708;10.816;2023-05-10T04:40:05;12.90;99.90
9383;DHT22;4731;49.708;10.816;2023-05-10T04:42:32;12.90;99.90
9383;DHT22;4731;49.708;10.816;2023-05-10T04:44:59;12.90;99.90
9383;DHT22;4731;49.708;10.816;2023-05-10T04:47:26;12.80;99.90
9383;DHT22;4731;49.708;10.816;2023-05-10T04:49:54;12.90;99.90
9383;DHT22;4731;49.708;10.816;2023-05-10T04:52:22;12.80;99.90
9383;DHT22;4731;49.708;10.816;2023-05-10T04:54:50;12.90;99.90
9383;DHT22;4731;49.708;10.816;2023-05-10T04:57:16;12.90;99.90
9383;DHT22;4731;49.708;10.816;2023-05-10T04:59:43;12.80;99.90
9383;DHT22;4731;49.708;10.816;2023-05-10T05:02:10;12.80;99.90
9383;DHT22;4731;49.708;10.816;2023-05-10T05:04:36;12.90;99.90
9383;DHT22;4731;49.708;10.816;2023-05-10T05:07:04;12.90;99.90
9383;DHT22;4731;49.708;10.816;2023-05-10T05:09:32;13.00;99.90
9383;DHT22;4731;49.708;10.816;2023-05-10T05:11:59;13.00;99.90
9383;DHT22;4731;49.708;10.816;2023-05-10T05:14:26;13.00;99.90
9383;DHT22;4731;49.708;10.816;2023-05-10T05:16:53;13.10;99.90
9383;DHT22;4731;49.708;10.816;2023-05-10T05:19:19;13.10;99.90
9383;DHT22;4731;49.708;10.816;2023-05-10T05:21:46;16.10;99.90
9383;DHT22;4731;49.708;10.816;2023-05-10T05:24:13;13.20;99.90
9383;DHT22;4731;49.708;10.816;2023-05-10T05:26:41;13.30;99.90
9383;DHT22;4731;49.708;10.816;2023-05-10T05:29:07;13.40;99.90
9383;DHT22;4731;49.708;10.816;2023-05-10T05:31:34;13.30;99.90
9383;DHT22;4731;49.708;10.816;2023-05-10T05:34:01;13.20;99.90
9383;DHT22;4731;49.708;10.816;2023-05-10T05:36:27;13.30;99.90
9383;DHT22;4731;49.708;10.816;2023-05-10T05:38:54;13.30;99.90
9383;DHT22;4731;49.708;10.816;2023-05-10T05:41:21;13.40;99.90
9383;DHT22;4731;49.708;10.816;2023-05-10T05:43:50;13.50;99.90
9383;DHT22;4731;49.708;10.816;2023-05-10T05:46:17;13.60;99.90
9383;DHT22;4731;49.708;10.816;2023-05-10T05:48:44;13.60;99.90
9383;DHT22;4731;49.708;10.816;2023-05-10T05:51:10;13.70;99.90
9383;DHT22;4731;49.708;10.816;2023-05-10T05:53:37;13.70;99.90
9383;DHT22;4731;49.708;10.816;2023-05-10T05:56:04;13.80;99.90
9383;DHT22;4731;49.708;10.816;2023-05-10T05:58:31;13.70;99.90
9383;DHT22;4731;49.708;10.816;2023-05-10T06:00:59;13.80;99.90
9383;DHT22;4731;49.708;10.816;2023-05-10T06:03:26;13.80;99.90
9383;DHT22;4731;49.708;10.816;2023-05-10T06:05:52;13.80;99.90
9383;DHT22;4731;49.708;10.816;2023-05-10T06:08:19;14.00;99.90
9383;DHT22;4731;49.708;10.816;2023-05-10T06:10:46;14.00;99.90
9383;DHT22;4731;49.708;10.816;2023-05-10T06:13:12;14.10;99.90
9383;DHT22;4731;49.708;10.816;2023-05-10T06:15:39;14.20;99.90
9383;DHT22;4731;49.708;10.816;2023-05-10T06:18:07;14.30;99.90
9383;DHT22;4731;49.708;10.816;2023-05-10T06:20:34;14.40;99.90
9383;DHT22;4731;49.708;10.816;2023-05-10T06:23:00;14.50;99.90
9383;DHT22;4731;49.708;10.816;2023-05-10T06:25:27;14.60;99.90
9383;DHT22;4731;49.708;10.816;2023-05-10T06:27:54;14.80;99.90
9383;DHT22;4731;49.708;10.816;2023-05-10T06:30:24;14.70;99.90
9383;DHT22;4731;49.708;10.816;2023-05-10T06:32:53;14.70;99.90
9383;DHT22;4731;49.708;10.816;2023-05-10T06:35:21;14.80;99.90
9383;DHT22;4731;49.708;10.816;2023-05-10T06:37:48;14.70;99.90
9383;DHT22;4731;49.708;10.816;2023-05-10T06:40:15;14.90;99.90
9383;DHT22;4731;49.708;10.816;2023-05-10T06:42:42;14.90;99.90
9383;DHT22;4731;49.708;10.816;2023-05-10T06:45:10;14.90;99.90
9383;DHT22;4731;49.708;10.816;2023-05-10T06:47:37;14.90;99.90
9383;DHT22;4731;49.708;10.816;2023-05-10T06:50:04;14.90;99.90
9383;DHT22;4731;49.708;10.816;2023-05-10T06:52:32;15.00;99.90
9383;DHT22;4731;49.708;10.816;2023-05-10T06:54:59;15.00;99.90
9383;DHT22;4731;49.708;10.816;2023-05-10T06:57:27;15.00;99.90
9383;DHT22;4731;49.708;10.816;2023-05-10T06:59:53;15.20;99.90
9383;DHT22;4731;49.708;10.816;2023-05-10T07:02:21;15.40;99.90
9383;DHT22;4731;49.708;10.816;2023-05-10T07:04:48;15.40;99.90
9383;DHT22;4731;49.708;10.816;2023-05-10T07:07:15;15.60;99.90
9383;DHT22;4731;49.708;10.816;2023-05-10T07:09:43;16.30;99.90
9383;DHT22;4731;49.708;10.816;2023-05-10T07:12:11;15.90;99.90
9383;DHT22;4731;49.708;10.816;2023-05-10T07:14:38;15.90;99.90
9383;DHT22;4731;49.708;10.816;2023-05-10T07:17:04;16.00;99.90
9383;DHT22;4731;49.708;10.816;2023-05-10T07:19:31;16.20;99.90
9383;DHT22;4731;49.708;10.816;2023-05-10T07:21:58;16.30;99.90
9383;DHT22;4731;49.708;10.816;2023-05-10T07:24:24;16.40;99.90
9383;DHT22;4731;49.708;10.816;2023-05-10T07:26:53;16.40;99.90
9383;DHT22;4731;49.708;10.816;2023-05-10T07:29:19;16.50;99.90
9383;DHT22;4731;49.708;10.816;2023-05-10T07:31:46;16.50;99.90
9383;DHT22;4731;49.708;10.816;2023-05-10T07:34:13;16.50;99.90
9383;DHT22;4731;49.708;10.816;2023-05-10T07:36:39;16.70;99.90
9383;DHT22;4731;49.708;10.816;2023-05-10T07:39:06;16.90;99.90
9383;DHT22;4731;49.708;10.816;2023-05-10T07:41:33;16.80;99.90
9383;DHT22;4731;49.708;10.816;2023-05-10T07:44:01;16.30;99.90
9383;DHT22;4731;49.708;10.816;2023-05-10T07:46:28;16.00;99.90
9383;DHT22;4731;49.708;10.816;2023-05-10T07:48:54;15.80;99.90
9383;DHT22;4731;49.708;10.816;2023-05-10T07:51:21;15.60;99.90
9383;DHT22;4731;49.708;10.816;2023-05-10T07:53:48;15.30;99.90
9383;DHT22;4731;49.708;10.816;2023-05-10T07:56:22;16.40;99.90
9383;DHT22;4731;49.708;10.816;2023-05-10T07:58:50;15.10;99.90
9383;DHT22;4731;49.708;10.816;2023-05-10T08:01:19;16.20;99.90
9383;DHT22;4731;49.708;10.816;2023-05-10T08:03:45;15.00;99.90
9383;DHT22;4731;49.708;10.816;2023-05-10T08:06:12;15.10;99.90
9383;DHT22;4731;49.708;10.816;2023-05-10T08:08:39;15.10;99.90
9383;DHT22;4731;49.708;10.816;2023-05-10T08:11:06;15.30;99.90
9383;DHT22;4731;49.708;10.816;2023-05-10T08:13:33;15.40;99.90
9383;DHT22;4731;49.708;10.816;2023-05-10T08:16:00;15.60;99.90
9383;DHT22;4731;49.708;10.816;2023-05-10T08:18:28;15.80;99.90
9383;DHT22;4731;49.708;10.816;2023-05-10T08:20:54;15.90;99.90
9383;DHT22;4731;49.708;10.816;2023-05-10T08:23:21;15.90;99.90
9383;DHT22;4731;49.708;10.816;2023-05-10T08:25:48;16.10;99.90
9383;DHT22;4731;49.708;10.816;2023-05-10T08:28:14;15.90;99.90
9383;DHT22;4731;49.708;10.816;2023-05-10T08:30:41;15.80;99.90
9383;DHT22;4731;49.708;10.816;2023-05-10T08:33:08;15.90;99.90
9383;DHT22;4731;49.708;10.816;2023-05-10T08:35:36;15.90;99.90
9383;DHT22;4731;49.708;10.816;2023-05-10T08:38:02;16.10;99.90
9383;DHT22;4731;49.708;10.816;2023-05-10T08:40:29;16.10;99.90
9383;DHT22;4731;49.708;10.816;2023-05-10T08:43:02;16.00;99.90
9383;DHT22;4731;49.708;10.816;2023-05-10T08:45:32;16.10;99.90
9383;DHT22;4731;49.708;10.816;2023-05-10T08:48:01;16.20;99.90
9383;DHT22;4731;49.708;10.816;2023-05-10T08:50:29;16.20;99.90
9383;DHT22;4731;49.708;10.816;2023-05-10T08:53:00;16.40;99.90
9383;DHT22;4731;49.708;10.816;2023-05-10T08:55:27;16.30;99.90
9383;DHT22;4731;49.708;10.816;2023-05-10T08:57:54;16.30;99.90
9383;DHT22;4731;49.708;10.816;2023-05-10T09:00:21;16.60;99.90
9383;DHT22;4731;49.708;10.816;2023-05-10T09:02:49;16.90;99.90
9383;DHT22;4731;49.708;10.816;2023-05-10T09:05:16;16.90;99.90
9383;DHT22;4731;49.708;10.816;2023-05-10T09:07:43;17.10;99.90
9383;DHT22;4731;49.708;10.816;2023-05-10T09:10:11;17.30;99.90
9383;DHT22;4731;49.708;10.816;2023-05-10T09:12:39;17.70;99.90
9383;DHT22;4731;49.708;10.816;2023-05-10T09:15:07;18.20;99.90
9383;DHT22;4731;49.708;10.816;2023-05-10T09:17:35;18.40;99.90
9383;DHT22;4731;49.708;10.816;2023-05-10T09:20:04;19.80;99.90
9383;DHT22;4731;49.708;10.816;2023-05-10T09:22:31;18.30;99.90
9383;DHT22;4731;49.708;10.816;2023-05-10T09:25:05;18.60;99.90
9383;DHT22;4731;49.708;10.816;2023-05-10T09:27:33;19.20;99.90
9383;DHT22;4731;49.708;10.816;2023-05-10T09:30:00;19.30;99.90
9383;DHT22;4731;49.708;10.816;2023-05-10T09:32:37;18.80;99.90
9383;DHT22;4731;49.708;10.816;2023-05-10T09:35:08;18.20;99.90
9383;DHT22;4731;49.708;10.816;2023-05-10T09:37:35;18.30;99.90
9383;DHT22;4731;49.708;10.816;2023-05-10T09:40:05;18.70;99.90
9383;DHT22;4731;49.708;10.816;2023-05-10T09:42:34;19.20;99.90
9383;DHT22;4731;49.708;10.816;2023-05-10T09:45:02;19.80;99.90
9383;DHT22;4731;49.708;10.816;2023-05-10T09:47:33;21.70;99.90
9383;DHT22;4731;49.708;10.816;2023-05-10T09:50:00;20.20;99.90
9383;DHT22;4731;49.708;10.816;2023-05-10T09:55:07;20.60;99.90
9383;DHT22;4731;49.708;10.816;2023-05-10T09:57:35;20.80;99.90
9383;DHT22;4731;49.708;10.816;2023-05-10T10:00:01;21.20;99.90
9383;DHT22;4731;49.708;10.816;2023-05-10T10:02:30;21.10;99.90
9383;DHT22;4731;49.708;10.816;2023-05-10T10:04:57;22.70;99.90
9383;DHT22;4731;49.708;10.816;2023-05-10T10:07:24;20.60;99.90
9383;DHT22;4731;49.708;10.816;2023-05-10T10:09:52;20.10;99.90
9383;DHT22;4731;49.708;10.816;2023-05-10T10:12:19;20.00;99.90
9383;DHT22;4731;49.708;10.816;2023-05-10T10:14:47;20.10;99.90
9383;DHT22;4731;49.708;10.816;2023-05-10T10:17:16;20.40;99.90
9383;DHT22;4731;49.708;10.816;2023-05-10T10:19:43;20.40;99.90
9383;DHT22;4731;49.708;10.816;2023-05-10T10:22:12;20.00;99.90
9383;DHT22;4731;49.708;10.816;2023-05-10T10:24:38;20.50;99.90
9383;DHT22;4731;49.708;10.816;2023-05-10T10:27:19;20.70;99.90
9383;DHT22;4731;49.708;10.816;2023-05-10T10:29:58;20.90;99.90
9383;DHT22;4731;49.708;10.816;2023-05-10T10:32:42;21.00;99.90
9383;DHT22;4731;49.708;10.816;2023-05-10T10:35:16;20.70;99.90
9383;DHT22;4731;49.708;10.816;2023-05-10T10:37:46;20.50;99.90
9383;DHT22;4731;49.708;10.816;2023-05-10T10:40:23;20.10;99.90
9383;DHT22;4731;49.708;10.816;2023-05-10T10:42:51;19.20;99.90
9383;DHT22;4731;49.708;10.816;2023-05-10T10:45:21;19.30;99.90
9383;DHT22;4731;49.708;10.816;2023-05-10T10:47:48;19.00;99.90
9383;DHT22;4731;49.708;10.816;2023-05-10T10:50:15;18.80;99.90
9383;DHT22;4731;49.708;10.816;2023-05-10T10:52:43;19.10;99.90
9383;DHT22;4731;49.708;10.816;2023-05-10T10:55:10;19.20;99.90
9383;DHT22;4731;49.708;10.816;2023-05-10T10:57:46;19.30;99.90
9383;DHT22;4731;49.708;10.816;2023-05-10T11:00:36;18.70;99.90
9383;DHT22;4731;49.708;10.816;2023-05-10T11:03:06;18.00;99.90
9383;DHT22;4731;49.708;10.816;2023-05-10T11:05:36;18.10;99.90
9383;DHT22;4731;49.708;10.816;2023-05-10T11:08:12;17.80;99.90
9383;DHT22;4731;49.708;10.816;2023-05-10T11:10:39;17.90;99.90
9383;DHT22;4731;49.708;10.816;2023-05-10T11:13:08;17.70;99.90
9383;DHT22;4731;49.708;10.816;2023-05-10T11:15:38;17.60;99.90
9383;DHT22;4731;49.708;10.816;2023-05-10T11:18:17;17.40;99.90
9383;DHT22;4731;49.708;10.816;2023-05-10T11:20:50;17.50;99.90
9383;DHT22;4731;49.708;10.816;2023-05-10T11:23:17;17.50;99.90
9383;DHT22;4731;49.708;10.816;2023-05-10T11:25:45;17.70;99.90
9383;DHT22;4731;49.708;10.816;2023-05-10T11:28:13;17.70;99.90
9383;DHT22;4731;49.708;10.816;2023-05-10T11:30:43;18.00;99.90
9383;DHT22;4731;49.708;10.816;2023-05-10T11:33:15;19.10;99.90
9383;DHT22;4731;49.708;10.816;2023-05-10T11:35:42;17.90;99.90
9383;DHT22;4731;49.708;10.816;2023-05-10T11:38:10;17.90;99.90
9383;DHT22;4731;49.708;10.816;2023-05-10T11:40:37;18.10;99.90
9383;DHT22;4731;49.708;10.816;2023-05-10T11:43:04;18.00;99.90
9383;DHT22;4731;49.708;10.816;2023-05-10T11:45:32;20.00;99.90
9383;DHT22;4731;49.708;10.816;2023-05-10T11:48:01;19.40;99.90
9383;DHT22;4731;49.708;10.816;2023-05-10T11:50:30;18.80;99.90
9383;DHT22;4731;49.708;10.816;2023-05-10T11:52:57;19.00;99.90
9383;DHT22;4731;49.708;10.816;2023-05-10T11:55:26;19.10;99.90
9383;DHT22;4731;49.708;10.816;2023-05-10T11:57:53;19.30;99.90
9383;DHT22;4731;49.708;10.816;2023-05-10T12:00:20;20.70;99.90
9383;DHT22;4731;49.708;10.816;2023-05-10T12:02:48;19.30;99.90
9383;DHT22;4731;49.708;10.816;2023-05-10T12:05:16;19.70;99.90
9383;DHT22;4731;49.708;10.816;2023-05-10T12:07:43;20.60;99.90
9383;DHT22;4731;49.708;10.816;2023-05-10T12:10:12;20.50;99.90
9383;DHT22;4731;49.708;10.816;2023-05-10T12:12:40;20.90;99.90
9383;DHT22;4731;49.708;10.816;2023-05-10T12:15:11;21.50;99.90
9383;DHT22;4731;49.708;10.816;2023-05-10T12:17:38;22.10;99.90
9383;DHT22;4731;49.708;10.816;2023-05-10T12:20:17;24.00;99.90
9383;DHT22;4731;49.708;10.816;2023-05-10T12:22:46;21.90;99.90
9383;DHT22;4731;49.708;10.816;2023-05-10T12:25:13;21.70;99.90
9383;DHT22;4731;49.708;10.816;2023-05-10T12:27:48;23.10;99.90
9383;DHT22;4731;49.708;10.816;2023-05-10T12:30:19;21.00;99.90
9383;DHT22;4731;49.708;10.816;2023-05-10T12:32:46;21.20;99.90
9383;DHT22;4731;49.708;10.816;2023-05-10T12:35:13;21.80;99.90
9383;DHT22;4731;49.708;10.816;2023-05-10T12:37:41;20.50;99.90
9383;DHT22;4731;49.708;10.816;2023-05-10T12:40:10;20.50;99.90
9383;DHT22;4731;49.708;10.816;2023-05-10T12:42:38;20.50;99.90
9383;DHT22;4731;49.708;10.816;2023-05-10T12:45:06;20.30;99.90
9383;DHT22;4731;49.708;10.816;2023-05-10T12:47:34;20.10;99.90
9383;DHT22;4731;49.708;10.816;2023-05-10T12:50:01;19.80;99.90
9383;DHT22;4731;49.708;10.816;2023-05-10T12:52:29;19.80;99.90
9383;DHT22;4731;49.708;10.816;2023-05-10T12:54:58;20.00;99.90
9383;DHT22;4731;49.708;10.816;2023-05-10T12:57:25;19.70;99.90
9383;DHT22;4731;49.708;10.816;2023-05-10T12:59:52;20.60;99.90
9383;DHT22;4731;49.708;10.816;2023-05-10T13:02:19;19.60;99.90
9383;DHT22;4731;49.708;10.816;2023-05-10T13:04:47;20.50;99.90
9383;DHT22;4731;49.708;10.816;2023-05-10T13:07:14;21.10;99.90
9383;DHT22;4731;49.708;10.816;2023-05-10T13:09:41;20.60;99.90
9383;DHT22;4731;49.708;10.816;2023-05-10T13:12:09;20.30;99.90
9383;DHT22;4731;49.708;10.816;2023-05-10T13:14:35;21.50;99.90
9383;DHT22;4731;49.708;10.816;2023-05-10T13:17:02;20.30;99.90
9383;DHT22;4731;49.708;10.816;2023-05-10T13:19:29;20.50;99.90
9383;DHT22;4731;49.708;10.816;2023-05-10T13:21:56;21.30;99.90
9383;DHT22;4731;49.708;10.816;2023-05-10T13:24:23;21.20;99.90
9383;DHT22;4731;49.708;10.816;2023-05-10T13:26:50;20.20;99.90
9383;DHT22;4731;49.708;10.816;2023-05-10T13:29:18;19.70;99.90
9383;DHT22;4731;49.708;10.816;2023-05-10T13:31:45;19.50;99.90
9383;DHT22;4731;49.708;10.816;2023-05-10T13:34:12;19.50;99.90
9383;DHT22;4731;49.708;10.816;2023-05-10T13:36:38;20.50;99.90
9383;DHT22;4731;49.708;10.816;2023-05-10T13:39:05;19.80;99.90
9383;DHT22;4731;49.708;10.816;2023-05-10T13:41:32;19.50;99.90
9383;DHT22;4731;49.708;10.816;2023-05-10T13:43:59;20.20;99.90
9383;DHT22;4731;49.708;10.816;2023-05-10T13:46:28;19.50;99.90
9383;DHT22;4731;49.708;10.816;2023-05-10T13:48:55;20.20;99.90
9383;DHT22;4731;49.708;10.816;2023-05-10T13:51:22;20.20;99.90
9383;DHT22;4731;49.708;10.816;2023-05-10T13:53:49;19.80;99.90
9383;DHT22;4731;49.708;10.816;2023-05-10T13:56:16;19.90;99.90
9383;DHT22;4731;49.708;10.816;2023-05-10T13:58:43;19.80;99.90
9383;DHT22;4731;49.708;10.816;2023-05-10T14:01:10;19.70;99.90
9383;DHT22;4731;49.708;10.816;2023-05-10T14:03:39;19.50;99.90
9383;DHT22;4731;49.708;10.816;2023-05-10T14:06:07;19.40;99.90
9383;DHT22;4731;49.708;10.816;2023-05-10T14:08:35;19.30;99.90
9383;DHT22;4731;49.708;10.816;2023-05-10T14:11:01;19.10;99.90
9383;DHT22;4731;49.708;10.816;2023-05-10T14:13:28;18.70;99.90
9383;DHT22;4731;49.708;10.816;2023-05-10T14:15:55;18.30;99.90
9383;DHT22;4731;49.708;10.816;2023-05-10T14:18:22;17.70;99.90
9383;DHT22;4731;49.708;10.816;2023-05-10T14:20:50;18.20;99.90
9383;DHT22;4731;49.708;10.816;2023-05-10T14:23:17;19.00;99.90
9383;DHT22;4731;49.708;10.816;2023-05-10T14:25:45;16.50;99.90
9383;DHT22;4731;49.708;10.816;2023-05-10T14:28:12;16.30;99.90
9383;DHT22;4731;49.708;10.816;2023-05-10T14:30:38;16.20;99.90
9383;DHT22;4731;49.708;10.816;2023-05-10T14:33:05;19.30;99.90
9383;DHT22;4731;49.708;10.816;2023-05-10T14:35:33;15.50;99.90
9383;DHT22;4731;49.708;10.816;2023-05-10T14:38:01;15.60;99.90
9383;DHT22;4731;49.708;10.816;2023-05-10T14:40:28;15.50;99.90
9383;DHT22;4731;49.708;10.816;2023-05-10T14:42:55;15.60;99.90
9383;DHT22;4731;49.708;10.816;2023-05-10T14:45:22;15.40;99.90
9383;DHT22;4731;49.708;10.816;2023-05-10T14:50:17;15.20;99.90
9383;DHT22;4731;49.708;10.816;2023-05-10T14:52:44;15.80;99.90
9383;DHT22;4731;49.708;10.816;2023-05-10T14:55:12;15.20;99.90
9383;DHT22;4731;49.708;10.816;2023-05-10T14:57:38;15.20;99.90
9383;DHT22;4731;49.708;10.816;2023-05-10T15:00:07;16.50;99.90
9383;DHT22;4731;49.708;10.816;2023-05-10T15:02:35;15.10;99.90
9383;DHT22;4731;49.708;10.816;2023-05-10T15:05:03;14.90;99.90
9383;DHT22;4731;49.708;10.816;2023-05-10T15:07:30;14.80;99.90
9383;DHT22;4731;49.708;10.816;2023-05-10T15:12:27;14.70;99.90
9383;DHT22;4731;49.708;10.816;2023-05-10T15:14:54;14.80;99.90
9383;DHT22;4731;49.708;10.816;2023-05-10T15:17:21;15.00;99.90
9383;DHT22;4731;49.708;10.816;2023-05-10T15:20:06;14.50;99.90
9383;DHT22;4731;49.708;10.816;2023-05-10T15:22:54;14.40;99.90
9383;DHT22;4731;49.708;10.816;2023-05-10T15:25:23;14.50;99.90
9383;DHT22;4731;49.708;10.816;2023-05-10T15:27:58;14.50;99.90
9383;DHT22;4731;49.708;10.816;2023-05-10T15:30:26;14.40;99.90
9383;DHT22;4731;49.708;10.816;2023-05-10T15:32:57;14.40;99.90
9383;DHT22;4731;49.708;10.816;2023-05-10T15:35:25;14.40;99.90
9383;DHT22;4731;49.708;10.816;2023-05-10T15:37:52;14.40;99.90
9383;DHT22;4731;49.708;10.816;2023-05-10T15:40:20;14.40;99.90
9383;DHT22;4731;49.708;10.816;2023-05-10T15:42:47;14.40;99.90
9383;DHT22;4731;49.708;10.816;2023-05-10T15:45:15;14.60;99.90
9383;DHT22;4731;49.708;10.816;2023-05-10T15:47:42;15.60;99.90
9383;DHT22;4731;49.708;10.816;2023-05-10T15:50:10;14.40;99.90
9383;DHT22;4731;49.708;10.816;2023-05-10T15:52:36;14.40;99.90
9383;DHT22;4731;49.708;10.816;2023-05-10T15:55:04;14.40;99.90
9383;DHT22;4731;49.708;10.816;2023-05-10T15:57:41;14.30;99.90
9383;DHT22;4731;49.708;10.816;2023-05-10T16:00:09;14.60;99.90